sensor_id;sensor_type;location;lat;lon;timestamp;temperature;humidity
15937;DHT22;9163;48.818;8.976;2022-10-31T00:00:42;12.20;99.90
15937;DHT22;9163;48.818;8.976;2022-10-31T00:03:09;12.20;99.90
15937;DHT22;9163;48.818;8.976;2022-10-31T00:05:40;12.20;99.90
15937;DHT22;9163;48.818;8.976;2022-10-31T00:08:09;12.20;99.90
15937;DHT22;9163;48.818;8.976;2022-10-31T00:10:37;12.20;99.90
15937;DHT22;9163;48.818;8.976;2022-10-31T00:13:05;12.20;99.90
15937;DHT22;9163;48.818;8.976;2022-10-31T00:15:32;12.10;99.90
15937;DHT22;9163;48.818;8.976;2022-10-31T00:18:00;12.10;99.90
15937;DHT22;9163;48.818;8.976;2022-10-31T00:20:27;12.10;99.90
15937;DHT22;9163;48.818;8.976;2022-10-31T00:22:57;12.10;99.90
15937;DHT22;9163;48.818;8.976;2022-10-31T00:25:27;12.00;99.90
15937;DHT22;9163;48.818;8.976;2022-10-31T00:27:55;12.00;99.90
15937;DHT22;9163;48.818;8.976;2022-10-31T00:30:22;11.90;99.90
15937;DHT22;9163;48.818;8.976;2022-10-31T00:32:49;11.90;99.90
15937;DHT22;9163;48.818;8.976;2022-10-31T00:35:16;11.80;99.90
15937;DHT22;9163;48.818;8.976;2022-10-31T00:37:43;11.80;99.90
15937;DHT22;9163;48.818;8.976;2022-10-31T00:40:11;11.80;99.90
15937;DHT22;9163;48.818;8.976;2022-10-31T00:42:40;11.70;99.90
15937;DHT22;9163;48.818;8.976;2022-10-31T00:45:09;11.70;99.90
15937;DHT22;9163;48.818;8.976;2022-10-31T00:47:36;11.70;99.90
15937;DHT22;9163;48.818;8.976;2022-10-31T00:50:04;11.70;99.90
15937;DHT22;9163;48.818;8.976;2022-10-31T00:52:32;11.70;99.90
15937;DHT22;9163;48.818;8.976;2022-10-31T00:54:59;11.70;99.90
15937;DHT22;9163;48.818;8.976;2022-10-31T00:57:26;11.70;99.90
15937;DHT22;9163;48.818;8.976;2022-10-31T00:59:54;11.70;99.90
15937;DHT22;9163;48.818;8.976;2022-10-31T01:02:22;11.70;99.90
15937;DHT22;9163;48.818;8.976;2022-10-31T01:04:49;11.70;99.90
15937;DHT22;9163;48.818;8.976;2022-10-31T01:07:16;11.80;99.90
15937;DHT22;9163;48.818;8.976;2022-10-31T01:09:43;11.70;99.90
15937;DHT22;9163;48.818;8.976;2022-10-31T01:12:10;11.80;99.90
15937;DHT22;9163;48.818;8.976;2022-10-31T01:14:37;11.80;99.90
15937;DHT22;9163;48.818;8.976;2022-10-31T01:17:06;11.80;99.90
15937;DHT22;9163;48.818;8.976;2022-10-31T01:19:33;11.90;99.90
15937;DHT22;9163;48.818;8.976;2022-10-31T01:22:00;11.90;99.90
15937;DHT22;9163;48.818;8.976;2022-10-31T01:24:27;11.90;99.90
15937;DHT22;9163;48.818;8.976;2022-10-31T01:26:55;11.90;99.90
15937;DHT22;9163;48.818;8.976;2022-10-31T01:29:22;11.90;99.90
15937;DHT22;9163;48.818;8.976;2022-10-31T01:31:49;11.80;99.90
15937;DHT22;9163;48.818;8.976;2022-10-31T01:34:17;11.70;99.90
15937;DHT22;9163;48.818;8.976;2022-10-31T01:36:45;11.80;99.90
15937;DHT22;9163;48.818;8.976;2022-10-31T01:39:18;11.80;99.90
15937;DHT22;9163;48.818;8.976;2022-10-31T01:41:47;11.90;99.90
15937;DHT22;9163;48.818;8.976;2022-10-31T01:44:53;11.90;99.90
15937;DHT22;9163;48.818;8.976;2022-10-31T01:47:27;11.90;99.90
15937;DHT22;9163;48.818;8.976;2022-10-31T01:50:01;11.90;99.90
15937;DHT22;9163;48.818;8.976;2022-10-31T01:52:33;11.90;99.90
15937;DHT22;9163;48.818;8.976;2022-10-31T01:55:05;11.80;99.90
15937;DHT22;9163;48.818;8.976;2022-10-31T01:57:35;11.80;99.90
15937;DHT22;9163;48.818;8.976;2022-10-31T02:00:08;11.90;99.90
15937;DHT22;9163;48.818;8.976;2022-10-31T02:02:36;11.90;99.90
15937;DHT22;9163;48.818;8.976;2022-10-31T02:05:07;11.80;99.90
15937;DHT22;9163;48.818;8.976;2022-10-31T02:07:39;11.80;99.90
15937;DHT22;9163;48.818;8.976;2022-10-31T02:10:08;11.70;99.90
15937;DHT22;9163;48.818;8.976;2022-10-31T02:12:35;11.70;99.90
15937;DHT22;9163;48.818;8.976;2022-10-31T02:15:04;11.60;99.90
15937;DHT22;9163;48.818;8.976;2022-10-31T02:17:32;11.50;99.90
15937;DHT22;9163;48.818;8.976;2022-10-31T02:20:07;11.40;99.90
15937;DHT22;9163;48.818;8.976;2022-10-31T02:22:42;11.40;99.90
15937;DHT22;9163;48.818;8.976;2022-10-31T02:25:23;11.30;99.90
15937;DHT22;9163;48.818;8.976;2022-10-31T02:28:26;11.30;99.90
15937;DHT22;9163;48.818;8.976;2022-10-31T02:31:13;11.20;99.90
15937;DHT22;9163;48.818;8.976;2022-10-31T02:33:46;11.20;99.90
15937;DHT22;9163;48.818;8.976;2022-10-31T02:36:21;11.10;99.90
15937;DHT22;9163;48.818;8.976;2022-10-31T02:38:58;11.00;99.90
15937;DHT22;9163;48.818;8.976;2022-10-31T02:41:34;11.00;99.90
15937;DHT22;9163;48.818;8.976;2022-10-31T02:44:09;11.00;99.90
15937;DHT22;9163;48.818;8.976;2022-10-31T02:46:44;10.90;99.90
15937;DHT22;9163;48.818;8.976;2022-10-31T02:49:16;10.90;99.90
15937;DHT22;9163;48.818;8.976;2022-10-31T02:51:46;10.90;99.90
15937;DHT22;9163;48.818;8.976;2022-10-31T02:54:18;10.90;99.90
15937;DHT22;9163;48.818;8.976;2022-10-31T02:56:47;10.80;99.90
15937;DHT22;9163;48.818;8.976;2022-10-31T02:59:16;10.80;99.90
15937;DHT22;9163;48.818;8.976;2022-10-31T03:04:47;10.80;99.90
15937;DHT22;9163;48.818;8.976;2022-10-31T03:07:22;10.80;99.90
15937;DHT22;9163;48.818;8.976;2022-10-31T03:09:57;10.80;99.90
15937;DHT22;9163;48.818;8.976;2022-10-31T03:12:30;10.70;99.90
15937;DHT22;9163;48.818;8.976;2022-10-31T03:15:09;10.70;99.90
15937;DHT22;9163;48.818;8.976;2022-10-31T03:17:45;10.70;99.90
15937;DHT22;9163;48.818;8.976;2022-10-31T03:20:16;10.70;99.90
15937;DHT22;9163;48.818;8.976;2022-10-31T03:22:47;10.70;99.90
15937;DHT22;9163;48.818;8.976;2022-10-31T03:25:15;10.60;99.90
15937;DHT22;9163;48.818;8.976;2022-10-31T03:27:43;10.60;99.90
15937;DHT22;9163;48.818;8.976;2022-10-31T03:30:11;10.50;99.90
15937;DHT22;9163;48.818;8.976;2022-10-31T03:32:43;10.50;99.90
15937;DHT22;9163;48.818;8.976;2022-10-31T03:35:13;10.60;99.90
15937;DHT22;9163;48.818;8.976;2022-10-31T03:37:42;10.60;99.90
15937;DHT22;9163;48.818;8.976;2022-10-31T03:40:11;10.60;99.90
15937;DHT22;9163;48.818;8.976;2022-10-31T03:42:43;10.60;99.90
15937;DHT22;9163;48.818;8.976;2022-10-31T03:45:16;10.50;99.90
15937;DHT22;9163;48.818;8.976;2022-10-31T03:47:48;10.60;99.90
15937;DHT22;9163;48.818;8.976;2022-10-31T03:50:15;10.60;99.90
15937;DHT22;9163;48.818;8.976;2022-10-31T03:52:45;10.50;99.90
15937;DHT22;9163;48.818;8.976;2022-10-31T03:55:18;10.40;99.90
15937;DHT22;9163;48.818;8.976;2022-10-31T03:57:50;10.50;99.90
15937;DHT22;9163;48.818;8.976;2022-10-31T04:00:19;10.50;99.90
15937;DHT22;9163;48.818;8.976;2022-10-31T04:02:53;10.50;99.90
15937;DHT22;9163;48.818;8.976;2022-10-31T04:05:22;10.60;99.90
15937;DHT22;9163;48.818;8.976;2022-10-31T04:07:53;10.60;99.90
15937;DHT22;9163;48.818;8.976;2022-10-31T04:10:22;10.60;99.90
15937;DHT22;9163;48.818;8.976;2022-10-31T04:12:55;10.60;99.90
15937;DHT22;9163;48.818;8.976;2022-10-31T04:15:25;10.60;99.90
15937;DHT22;9163;48.818;8.976;2022-10-31T04:17:57;10.60;99.90
15937;DHT22;9163;48.818;8.976;2022-10-31T04:20:32;10.70;99.90
15937;DHT22;9163;48.818;8.976;2022-10-31T04:22:59;10.70;99.90
15937;DHT22;9163;48.818;8.976;2022-10-31T04:25:27;10.70;99.90
15937;DHT22;9163;48.818;8.976;2022-10-31T04:27:54;10.70;99.90
15937;DHT22;9163;48.818;8.976;2022-10-31T04:30:21;10.60;99.90
15937;DHT22;9163;48.818;8.976;2022-10-31T04:32:48;10.50;99.90
15937;DHT22;9163;48.818;8.976;2022-10-31T04:35:17;10.50;99.90
15937;DHT22;9163;48.818;8.976;2022-10-31T04:37:44;10.50;99.90
15937;DHT22;9163;48.818;8.976;2022-10-31T04:40:11;10.50;99.90
15937;DHT22;9163;48.818;8.976;2022-10-31T04:42:38;10.50;99.90
15937;DHT22;9163;48.818;8.976;2022-10-31T04:45:06;10.50;99.90
15937;DHT22;9163;48.818;8.976;2022-10-31T04:47:34;10.50;99.90
15937;DHT22;9163;48.818;8.976;2022-10-31T04:50:01;10.50;99.90
15937;DHT22;9163;48.818;8.976;2022-10-31T04:52:30;10.50;99.90
15937;DHT22;9163;48.818;8.976;2022-10-31T04:54:57;10.50;99.90
15937;DHT22;9163;48.818;8.976;2022-10-31T04:57:24;10.50;99.90
15937;DHT22;9163;48.818;8.976;2022-10-31T04:59:51;10.50;99.90
15937;DHT22;9163;48.818;8.976;2022-10-31T05:02:18;10.60;99.90
15937;DHT22;9163;48.818;8.976;2022-10-31T05:04:46;10.50;99.90
15937;DHT22;9163;48.818;8.976;2022-10-31T05:07:13;10.50;99.90
15937;DHT22;9163;48.818;8.976;2022-10-31T05:09:41;10.50;99.90
15937;DHT22;9163;48.818;8.976;2022-10-31T05:12:08;10.50;99.90
15937;DHT22;9163;48.818;8.976;2022-10-31T05:14:36;10.60;99.90
15937;DHT22;9163;48.818;8.976;2022-10-31T05:17:03;10.60;99.90
15937;DHT22;9163;48.818;8.976;2022-10-31T05:19:30;10.60;99.90
15937;DHT22;9163;48.818;8.976;2022-10-31T05:21:57;10.60;99.90
15937;DHT22;9163;48.818;8.976;2022-10-31T05:24:24;10.60;99.90
15937;DHT22;9163;48.818;8.976;2022-10-31T05:26:55;10.50;99.90
15937;DHT22;9163;48.818;8.976;2022-10-31T05:29:22;10.50;99.90
15937;DHT22;9163;48.818;8.976;2022-10-31T05:31:50;10.60;99.90
15937;DHT22;9163;48.818;8.976;2022-10-31T05:34:17;10.60;99.90
15937;DHT22;9163;48.818;8.976;2022-10-31T05:36:44;10.70;99.90
15937;DHT22;9163;48.818;8.976;2022-10-31T05:39:11;10.80;99.90
15937;DHT22;9163;48.818;8.976;2022-10-31T05:41:38;10.70;99.90
15937;DHT22;9163;48.818;8.976;2022-10-31T05:44:07;10.70;99.90
15937;DHT22;9163;48.818;8.976;2022-10-31T05:46:34;10.70;99.90
15937;DHT22;9163;48.818;8.976;2022-10-31T05:49:01;10.70;99.90
15937;DHT22;9163;48.818;8.976;2022-10-31T05:51:28;10.70;99.90
15937;DHT22;9163;48.818;8.976;2022-10-31T05:53:55;10.70;99.90
15937;DHT22;9163;48.818;8.976;2022-10-31T05:56:23;10.70;99.90
15937;DHT22;9163;48.818;8.976;2022-10-31T05:58:50;10.70;99.90
15937;DHT22;9163;48.818;8.976;2022-10-31T06:01:18;10.60;99.90
15937;DHT22;9163;48.818;8.976;2022-10-31T06:03:45;10.50;99.90
15937;DHT22;9163;48.818;8.976;2022-10-31T06:06:13;10.40;99.90
15937;DHT22;9163;48.818;8.976;2022-10-31T06:08:41;10.30;99.90
15937;DHT22;9163;48.818;8.976;2022-10-31T06:11:08;10.20;99.90
15937;DHT22;9163;48.818;8.976;2022-10-31T06:13:35;10.20;99.90
15937;DHT22;9163;48.818;8.976;2022-10-31T06:16:03;10.20;99.90
15937;DHT22;9163;48.818;8.976;2022-10-31T06:18:31;10.10;99.90
15937;DHT22;9163;48.818;8.976;2022-10-31T06:20:59;10.10;99.90
15937;DHT22;9163;48.818;8.976;2022-10-31T06:23:26;10.10;99.90
15937;DHT22;9163;48.818;8.976;2022-10-31T06:25:53;10.10;99.90
15937;DHT22;9163;48.818;8.976;2022-10-31T06:28:21;10.10;99.90
15937;DHT22;9163;48.818;8.976;2022-10-31T06:30:48;10.10;99.90
15937;DHT22;9163;48.818;8.976;2022-10-31T06:33:15;10.20;99.90
15937;DHT22;9163;48.818;8.976;2022-10-31T06:35:46;10.30;99.90
15937;DHT22;9163;48.818;8.976;2022-10-31T06:38:13;10.40;99.90
15937;DHT22;9163;48.818;8.976;2022-10-31T06:40:40;10.50;99.90
15937;DHT22;9163;48.818;8.976;2022-10-31T06:43:08;10.60;99.90
15937;DHT22;9163;48.818;8.976;2022-10-31T06:45:37;10.70;99.90
15937;DHT22;9163;48.818;8.976;2022-10-31T06:48:04;10.80;99.90
15937;DHT22;9163;48.818;8.976;2022-10-31T06:50:32;10.90;99.90
15937;DHT22;9163;48.818;8.976;2022-10-31T06:53:00;11.00;99.90
15937;DHT22;9163;48.818;8.976;2022-10-31T06:55:27;11.00;99.90
15937;DHT22;9163;48.818;8.976;2022-10-31T06:57:57;11.10;99.90
15937;DHT22;9163;48.818;8.976;2022-10-31T07:00:26;11.30;99.90
15937;DHT22;9163;48.818;8.976;2022-10-31T07:02:55;11.40;99.90
15937;DHT22;9163;48.818;8.976;2022-10-31T07:05:23;11.20;99.90
15937;DHT22;9163;48.818;8.976;2022-10-31T07:07:52;11.40;99.90
15937;DHT22;9163;48.818;8.976;2022-10-31T07:10:22;11.50;99.90
15937;DHT22;9163;48.818;8.976;2022-10-31T07:12:54;11.70;99.90
15937;DHT22;9163;48.818;8.976;2022-10-31T07:15:21;11.80;99.90
15937;DHT22;9163;48.818;8.976;2022-10-31T07:17:49;11.90;99.90
15937;DHT22;9163;48.818;8.976;2022-10-31T07:20:16;12.00;99.90
15937;DHT22;9163;48.818;8.976;2022-10-31T07:22:43;12.00;99.90
15937;DHT22;9163;48.818;8.976;2022-10-31T07:25:11;12.10;99.90
15937;DHT22;9163;48.818;8.976;2022-10-31T07:27:40;12.20;99.90
15937;DHT22;9163;48.818;8.976;2022-10-31T07:30:09;12.20;99.90
15937;DHT22;9163;48.818;8.976;2022-10-31T07:32:38;12.30;99.90
15937;DHT22;9163;48.818;8.976;2022-10-31T07:35:06;12.40;99.90
15937;DHT22;9163;48.818;8.976;2022-10-31T07:37:34;12.50;99.90
15937;DHT22;9163;48.818;8.976;2022-10-31T07:40:01;12.80;99.90
15937;DHT22;9163;48.818;8.976;2022-10-31T07:42:28;12.80;99.90
15937;DHT22;9163;48.818;8.976;2022-10-31T07:44:57;12.90;99.90
15937;DHT22;9163;48.818;8.976;2022-10-31T07:47:24;13.00;99.90
15937;DHT22;9163;48.818;8.976;2022-10-31T07:49:51;13.10;99.90
15937;DHT22;9163;48.818;8.976;2022-10-31T07:52:19;13.30;99.90
15937;DHT22;9163;48.818;8.976;2022-10-31T07:54:46;13.40;99.90
15937;DHT22;9163;48.818;8.976;2022-10-31T07:57:13;13.50;99.90
15937;DHT22;9163;48.818;8.976;2022-10-31T07:59:40;13.50;99.90
15937;DHT22;9163;48.818;8.976;2022-10-31T08:02:09;13.50;99.90
15937;DHT22;9163;48.818;8.976;2022-10-31T08:04:36;13.70;99.90
15937;DHT22;9163;48.818;8.976;2022-10-31T08:07:03;13.50;99.90
15937;DHT22;9163;48.818;8.976;2022-10-31T08:09:30;13.70;99.90
15937;DHT22;9163;48.818;8.976;2022-10-31T08:11:57;13.80;99.90
15937;DHT22;9163;48.818;8.976;2022-10-31T08:14:25;14.10;99.90
15937;DHT22;9163;48.818;8.976;2022-10-31T08:16:52;14.40;99.90
15937;DHT22;9163;48.818;8.976;2022-10-31T08:19:21;14.70;99.90
15937;DHT22;9163;48.818;8.976;2022-10-31T08:21:50;15.00;99.90
15937;DHT22;9163;48.818;8.976;2022-10-31T08:24:18;15.30;99.90
15937;DHT22;9163;48.818;8.976;2022-10-31T08:26:45;15.50;99.90
15937;DHT22;9163;48.818;8.976;2022-10-31T08:29:13;15.80;99.90
15937;DHT22;9163;48.818;8.976;2022-10-31T08:31:40;16.00;99.90
15937;DHT22;9163;48.818;8.976;2022-10-31T08:34:07;16.50;99.90
15937;DHT22;9163;48.818;8.976;2022-10-31T08:36:36;16.80;99.90
15937;DHT22;9163;48.818;8.976;2022-10-31T08:39:03;17.00;99.90
15937;DHT22;9163;48.818;8.976;2022-10-31T08:41:30;16.90;99.90
15937;DHT22;9163;48.818;8.976;2022-10-31T08:43:57;17.00;99.90
15937;DHT22;9163;48.818;8.976;2022-10-31T08:46:25;16.70;99.90
15937;DHT22;9163;48.818;8.976;2022-10-31T08:48:52;17.10;99.90
15937;DHT22;9163;48.818;8.976;2022-10-31T08:51:19;17.40;99.90
15937;DHT22;9163;48.818;8.976;2022-10-31T08:53:47;17.50;99.90
15937;DHT22;9163;48.818;8.976;2022-10-31T08:56:15;17.60;99.90
15937;DHT22;9163;48.818;8.976;2022-10-31T08:58:42;17.90;99.90
15937;DHT22;9163;48.818;8.976;2022-10-31T09:01:09;18.20;99.90
15937;DHT22;9163;48.818;8.976;2022-10-31T09:03:36;18.20;99.90
15937;DHT22;9163;48.818;8.976;2022-10-31T09:06:04;18.30;99.90
15937;DHT22;9163;48.818;8.976;2022-10-31T09:08:35;18.60;99.90
15937;DHT22;9163;48.818;8.976;2022-10-31T09:11:04;18.60;99.90
15937;DHT22;9163;48.818;8.976;2022-10-31T09:13:32;18.90;99.90
15937;DHT22;9163;48.818;8.976;2022-10-31T09:15:59;19.10;99.90
15937;DHT22;9163;48.818;8.976;2022-10-31T09:18:26;19.20;99.90
15937;DHT22;9163;48.818;8.976;2022-10-31T09:20:57;19.40;99.90
15937;DHT22;9163;48.818;8.976;2022-10-31T09:23:24;19.90;99.90
15937;DHT22;9163;48.818;8.976;2022-10-31T09:25:52;20.00;99.90
15937;DHT22;9163;48.818;8.976;2022-10-31T09:28:23;20.30;99.90
15937;DHT22;9163;48.818;8.976;2022-10-31T09:30:52;20.40;99.90
15937;DHT22;9163;48.818;8.976;2022-10-31T09:33:20;20.50;99.90
15937;DHT22;9163;48.818;8.976;2022-10-31T09:35:48;20.60;99.90
15937;DHT22;9163;48.818;8.976;2022-10-31T09:38:17;20.90;99.90
15937;DHT22;9163;48.818;8.976;2022-10-31T09:40:47;21.40;99.90
15937;DHT22;9163;48.818;8.976;2022-10-31T09:43:21;21.90;99.90
15937;DHT22;9163;48.818;8.976;2022-10-31T09:45:58;22.40;99.90
15937;DHT22;9163;48.818;8.976;2022-10-31T09:48:35;22.40;99.90
15937;DHT22;9163;48.818;8.976;2022-10-31T09:51:07;21.80;99.90
15937;DHT22;9163;48.818;8.976;2022-10-31T09:53:39;21.40;99.90
15937;DHT22;9163;48.818;8.976;2022-10-31T09:56:11;21.40;99.90
15937;DHT22;9163;48.818;8.976;2022-10-31T09:58:43;21.00;99.90
15937;DHT22;9163;48.818;8.976;2022-10-31T10:01:32;20.80;99.90
15937;DHT22;9163;48.818;8.976;2022-10-31T10:04:05;20.70;99.90
15937;DHT22;9163;48.818;8.976;2022-10-31T10:06:43;21.30;99.90
15937;DHT22;9163;48.818;8.976;2022-10-31T10:09:11;21.80;99.90
15937;DHT22;9163;48.818;8.976;2022-10-31T10:11:48;22.10;99.90
15937;DHT22;9163;48.818;8.976;2022-10-31T10:14:34;22.30;99.90
15937;DHT22;9163;48.818;8.976;2022-10-31T10:17:18;22.80;99.90
15937;DHT22;9163;48.818;8.976;2022-10-31T10:20:01;23.20;99.90
15937;DHT22;9163;48.818;8.976;2022-10-31T10:22:38;23.60;99.90
15937;DHT22;9163;48.818;8.976;2022-10-31T10:25:15;24.00;99.90
15937;DHT22;9163;48.818;8.976;2022-10-31T10:27:50;24.20;99.90
15937;DHT22;9163;48.818;8.976;2022-10-31T10:30:22;24.30;99.90
15937;DHT22;9163;48.818;8.976;2022-10-31T10:32:52;24.50;99.90
15937;DHT22;9163;48.818;8.976;2022-10-31T10:35:23;24.70;99.90
15937;DHT22;9163;48.818;8.976;2022-10-31T10:37:53;24.60;99.90
15937;DHT22;9163;48.818;8.976;2022-10-31T10:40:24;24.70;99.90
15937;DHT22;9163;48.818;8.976;2022-10-31T10:42:59;25.10;99.90
15937;DHT22;9163;48.818;8.976;2022-10-31T10:45:45;25.00;99.90
15937;DHT22;9163;48.818;8.976;2022-10-31T10:48:41;25.00;99.90
15937;DHT22;9163;48.818;8.976;2022-10-31T10:51:19;25.00;99.90
15937;DHT22;9163;48.818;8.976;2022-10-31T10:54:00;24.70;99.90
15937;DHT22;9163;48.818;8.976;2022-10-31T10:56:36;24.40;99.90
15937;DHT22;9163;48.818;8.976;2022-10-31T10:59:10;24.30;99.90
15937;DHT22;9163;48.818;8.976;2022-10-31T11:01:40;23.60;99.90
15937;DHT22;9163;48.818;8.976;2022-10-31T11:04:18;23.50;99.90
15937;DHT22;9163;48.818;8.976;2022-10-31T11:06:57;23.10;99.90
15937;DHT22;9163;48.818;8.976;2022-10-31T11:09:24;23.00;99.90
15937;DHT22;9163;48.818;8.976;2022-10-31T11:11:51;23.00;99.90
15937;DHT22;9163;48.818;8.976;2022-10-31T11:14:19;23.10;99.90
15937;DHT22;9163;48.818;8.976;2022-10-31T11:16:51;23.20;99.90
15937;DHT22;9163;48.818;8.976;2022-10-31T11:19:20;23.30;99.90
15937;DHT22;9163;48.818;8.976;2022-10-31T11:21:48;23.30;99.90
15937;DHT22;9163;48.818;8.976;2022-10-31T11:24:18;23.30;99.90
15937;DHT22;9163;48.818;8.976;2022-10-31T11:26:47;23.20;99.90
15937;DHT22;9163;48.818;8.976;2022-10-31T11:29:16;23.10;99.90
15937;DHT22;9163;48.818;8.976;2022-10-31T11:31:46;23.20;99.90
15937;DHT22;9163;48.818;8.976;2022-10-31T11:34:23;23.10;99.90
15937;DHT22;9163;48.818;8.976;2022-10-31T11:36:53;22.90;99.90
15937;DHT22;9163;48.818;8.976;2022-10-31T11:39:22;23.00;99.90
15937;DHT22;9163;48.818;8.976;2022-10-31T11:41:52;23.20;99.90
15937;DHT22;9163;48.818;8.976;2022-10-31T11:44:21;23.50;99.90
15937;DHT22;9163;48.818;8.976;2022-10-31T11:46:51;23.50;99.90
15937;DHT22;9163;48.818;8.976;2022-10-31T11:49:25;23.50;99.90
15937;DHT22;9163;48.818;8.976;2022-10-31T11:51:57;23.30;99.90
15937;DHT22;9163;48.818;8.976;2022-10-31T11:54:28;23.10;99.90
15937;DHT22;9163;48.818;8.976;2022-10-31T11:56:56;23.00;99.90
15937;DHT22;9163;48.818;8.976;2022-10-31T11:59:26;22.80;99.90
15937;DHT22;9163;48.818;8.976;2022-10-31T12:01:55;22.80;99.90
15937;DHT22;9163;48.818;8.976;2022-10-31T12:04:31;22.90;99.90
15937;DHT22;9163;48.818;8.976;2022-10-31T12:07:01;23.00;99.90
15937;DHT22;9163;48.818;8.976;2022-10-31T12:09:29;23.00;99.90
15937;DHT22;9163;48.818;8.976;2022-10-31T12:12:14;23.30;99.90
15937;DHT22;9163;48.818;8.976;2022-10-31T12:14:52;23.70;99.90
15937;DHT22;9163;48.818;8.976;2022-10-31T12:17:23;24.10;99.90
15937;DHT22;9163;48.818;8.976;2022-10-31T12:20:01;24.30;99.90
15937;DHT22;9163;48.818;8.976;2022-10-31T12:22:38;24.30;99.90
15937;DHT22;9163;48.818;8.976;2022-10-31T12:25:25;24.20;99.90
15937;DHT22;9163;48.818;8.976;2022-10-31T12:28:13;23.90;99.90
15937;DHT22;9163;48.818;8.976;2022-10-31T12:30:53;23.80;99.90
15937;DHT22;9163;48.818;8.976;2022-10-31T12:33:34;23.10;99.90
15937;DHT22;9163;48.818;8.976;2022-10-31T12:36:21;22.60;99.90
15937;DHT22;9163;48.818;8.976;2022-10-31T12:39:09;22.40;99.90
15937;DHT22;9163;48.818;8.976;2022-10-31T12:41:52;22.00;99.90
15937;DHT22;9163;48.818;8.976;2022-10-31T12:44:40;21.80;99.90
15937;DHT22;9163;48.818;8.976;2022-10-31T12:47:36;21.50;99.90
15937;DHT22;9163;48.818;8.976;2022-10-31T12:50:20;21.30;99.90
15937;DHT22;9163;48.818;8.976;2022-10-31T12:52:56;21.20;99.90
15937;DHT22;9163;48.818;8.976;2022-10-31T12:55:38;20.90;99.90
15937;DHT22;9163;48.818;8.976;2022-10-31T12:58:10;20.70;99.90
15937;DHT22;9163;48.818;8.976;2022-10-31T13:00:46;20.70;99.90
15937;DHT22;9163;48.818;8.976;2022-10-31T13:03:23;20.70;99.90
15937;DHT22;9163;48.818;8.976;2022-10-31T13:05:54;20.60;99.90
15937;DHT22;9163;48.818;8.976;2022-10-31T13:08:27;20.50;99.90
15937;DHT22;9163;48.818;8.976;2022-10-31T13:11:03;20.30;99.90
15937;DHT22;9163;48.818;8.976;2022-10-31T13:13:35;20.20;99.90
15937;DHT22;9163;48.818;8.976;2022-10-31T13:16:07;20.10;99.90
15937;DHT22;9163;48.818;8.976;2022-10-31T13:18:40;20.10;99.90
15937;DHT22;9163;48.818;8.976;2022-10-31T13:21:12;20.20;99.90
15937;DHT22;9163;48.818;8.976;2022-10-31T13:23:44;20.30;99.90
15937;DHT22;9163;48.818;8.976;2022-10-31T13:26:17;20.90;99.90
15937;DHT22;9163;48.818;8.976;2022-10-31T13:28:50;21.80;99.90
15937;DHT22;9163;48.818;8.976;2022-10-31T13:31:20;22.70;99.90
15937;DHT22;9163;48.818;8.976;2022-10-31T13:33:51;23.80;99.90
15937;DHT22;9163;48.818;8.976;2022-10-31T13:36:26;25.60;99.90
15937;DHT22;9163;48.818;8.976;2022-10-31T13:39:03;28.00;99.90
15937;DHT22;9163;48.818;8.976;2022-10-31T13:41:43;30.50;99.90
15937;DHT22;9163;48.818;8.976;2022-10-31T13:44:14;30.80;99.90
15937;DHT22;9163;48.818;8.976;2022-10-31T13:46:43;31.00;99.90
15937;DHT22;9163;48.818;8.976;2022-10-31T13:49:24;30.50;99.90
15937;DHT22;9163;48.818;8.976;2022-10-31T13:51:52;29.70;99.90
15937;DHT22;9163;48.818;8.976;2022-10-31T13:54:23;29.60;99.90
15937;DHT22;9163;48.818;8.976;2022-10-31T13:56:51;28.40;99.90
15937;DHT22;9163;48.818;8.976;2022-10-31T13:59:21;28.20;99.90
15937;DHT22;9163;48.818;8.976;2022-10-31T14:01:51;27.60;99.90
15937;DHT22;9163;48.818;8.976;2022-10-31T14:04:22;27.10;99.90
15937;DHT22;9163;48.818;8.976;2022-10-31T14:06:57;26.30;99.90
15937;DHT22;9163;48.818;8.976;2022-10-31T14:09:32;25.50;99.90
15937;DHT22;9163;48.818;8.976;2022-10-31T14:12:03;25.10;99.90
15937;DHT22;9163;48.818;8.976;2022-10-31T14:14:35;24.90;99.90
15937;DHT22;9163;48.818;8.976;2022-10-31T14:17:17;24.70;99.90
15937;DHT22;9163;48.818;8.976;2022-10-31T14:19:58;24.30;99.90
15937;DHT22;9163;48.818;8.976;2022-10-31T14:22:29;24.20;99.90
15937;DHT22;9163;48.818;8.976;2022-10-31T14:24:58;23.80;99.90
15937;DHT22;9163;48.818;8.976;2022-10-31T14:27:44;23.40;99.90
15937;DHT22;9163;48.818;8.976;2022-10-31T14:30:18;23.00;99.90
15937;DHT22;9163;48.818;8.976;2022-10-31T14:32:53;23.50;99.90
15937;DHT22;9163;48.818;8.976;2022-10-31T14:35:25;25.40;99.90
15937;DHT22;9163;48.818;8.976;2022-10-31T14:38:07;27.00;99.90
15937;DHT22;9163;48.818;8.976;2022-10-31T14:40:52;28.70;99.90
15937;DHT22;9163;48.818;8.976;2022-10-31T14:43:46;28.20;99.90
15937;DHT22;9163;48.818;8.976;2022-10-31T14:46:39;27.30;99.90
15937;DHT22;9163;48.818;8.976;2022-10-31T14:49:20;26.60;99.90
15937;DHT22;9163;48.818;8.976;2022-10-31T14:51:51;27.40;99.90
15937;DHT22;9163;48.818;8.976;2022-10-31T14:54:23;27.00;99.90
15937;DHT22;9163;48.818;8.976;2022-10-31T14:56:56;26.40;99.90
15937;DHT22;9163;48.818;8.976;2022-10-31T14:59:28;25.40;99.90
15937;DHT22;9163;48.818;8.976;2022-10-31T15:01:59;24.50;99.90
15937;DHT22;9163;48.818;8.976;2022-10-31T15:04:29;23.50;99.90
15937;DHT22;9163;48.818;8.976;2022-10-31T15:07:02;22.70;99.90
15937;DHT22;9163;48.818;8.976;2022-10-31T15:09:34;22.00;99.90
15937;DHT22;9163;48.818;8.976;2022-10-31T15:12:22;21.50;99.90
15937;DHT22;9163;48.818;8.976;2022-10-31T15:14:50;20.90;99.90
15937;DHT22;9163;48.818;8.976;2022-10-31T15:17:17;20.60;99.90
15937;DHT22;9163;48.818;8.976;2022-10-31T15:19:45;20.20;99.90
15937;DHT22;9163;48.818;8.976;2022-10-31T15:22:14;19.90;99.90
15937;DHT22;9163;48.818;8.976;2022-10-31T15:24:42;19.70;99.90
15937;DHT22;9163;48.818;8.976;2022-10-31T15:27:14;19.50;99.90
15937;DHT22;9163;48.818;8.976;2022-10-31T15:29:48;19.20;99.90
15937;DHT22;9163;48.818;8.976;2022-10-31T15:32:19;19.00;99.90
15937;DHT22;9163;48.818;8.976;2022-10-31T15:34:49;18.70;99.90
15937;DHT22;9163;48.818;8.976;2022-10-31T15:37:18;18.50;99.90
15937;DHT22;9163;48.818;8.976;2022-10-31T15:39:47;18.30;99.90
15937;DHT22;9163;48.818;8.976;2022-10-31T15:42:20;18.20;99.90
15937;DHT22;9163;48.818;8.976;2022-10-31T15:44:51;18.10;99.90
15937;DHT22;9163;48.818;8.976;2022-10-31T15:47:21;17.80;99.90
15937;DHT22;9163;48.818;8.976;2022-10-31T15:49:51;17.70;99.90
15937;DHT22;9163;48.818;8.976;2022-10-31T15:52:26;17.60;99.90
15937;DHT22;9163;48.818;8.976;2022-10-31T15:54:56;17.40;99.90
15937;DHT22;9163;48.818;8.976;2022-10-31T15:57:26;17.20;99.90
15937;DHT22;9163;48.818;8.976;2022-10-31T15:59:54;17.10;99.90
15937;DHT22;9163;48.818;8.976;2022-10-31T16:02:23;16.90;99.90
15937;DHT22;9163;48.818;8.976;2022-10-31T16:04:53;16.80;99.90
15937;DHT22;9163;48.818;8.976;2022-10-31T16:07:22;16.70;99.90
15937;DHT22;9163;48.818;8.976;2022-10-31T16:09:51;16.70;99.90
15937;DHT22;9163;48.818;8.976;2022-10-31T16:12:19;16.60;99.90